createdAt,value
2023-05-19T00:01:45.444Z,53.19
2023-05-19T00:04:15.249Z,52.98
2023-05-19T00:06:42.627Z,53.04
2023-05-19T00:09:14.254Z,52.91
2023-05-19T00:11:41.206Z,53.21
2023-05-19T00:14:10.002Z,53.32
2023-05-19T00:16:38.117Z,53.44
2023-05-19T00:19:10.066Z,52.92
2023-05-19T00:21:40.479Z,53.52
2023-05-19T00:24:20.616Z,53.18
2023-05-19T00:26:47.413Z,53.32
2023-05-19T00:29:19.427Z,53.67
2023-05-19T00:31:57.896Z,53.32
2023-05-19T00:34:24.589Z,53.46
2023-05-19T00:36:51.745Z,53.78
2023-05-19T00:39:24.260Z,53.56
2023-05-19T00:41:53.087Z,54.15
2023-05-19T00:44:19.815Z,53.95
2023-05-19T00:46:46.528Z,54.09
2023-05-19T00:49:16.135Z,53.99
2023-05-19T00:51:42.975Z,54.54
2023-05-19T00:54:09.967Z,54.50
2023-05-19T00:56:36.578Z,55.29
2023-05-19T00:59:03.494Z,55.52
2023-05-19T01:01:32.272Z,55.66
2023-05-19T01:04:00.522Z,55.47
2023-05-19T01:06:38.591Z,55.95
2023-05-19T01:09:05.351Z,55.67
2023-05-19T01:11:32.017Z,56.14
2023-05-19T01:13:58.566Z,56.14
2023-05-19T01:16:35.320Z,55.98
2023-05-19T01:19:34.051Z,56.10
2023-05-19T01:22:13.049Z,55.17
2023-05-19T01:25:17.776Z,55.15
2023-05-19T01:28:10.078Z,54.77
2023-05-19T01:30:40.399Z,54.69
2023-05-19T01:33:12.381Z,54.15
2023-05-19T01:35:40.583Z,54.27
2023-05-19T01:38:13.721Z,55.05
2023-05-19T01:40:43.643Z,54.85
2023-05-19T01:43:19.186Z,54.97
2023-05-19T01:45:47.850Z,54.52
2023-05-19T01:48:15.349Z,54.41
2023-05-19T01:50:51.562Z,54.69
2023-05-19T01:53:18.309Z,54.48
2023-05-19T01:55:54.919Z,54.56
2023-05-19T01:58:44.790Z,56.09
2023-05-19T02:01:42.091Z,54.95
2023-05-19T02:05:22.779Z,54.83
2023-05-19T02:08:10.323Z,54.29
2023-05-19T02:10:41.421Z,54.93
2023-05-19T02:13:13.593Z,54.72
2023-05-19T02:15:46.503Z,54.77
2023-05-19T02:18:22.721Z,54.29
2023-05-19T02:20:49.248Z,55.04
2023-05-19T02:23:15.829Z,54.60
2023-05-19T02:25:42.879Z,54.76
2023-05-19T02:28:09.420Z,54.76
2023-05-19T02:30:36.070Z,54.44
2023-05-19T02:33:06.592Z,54.50
2023-05-19T02:35:39.175Z,54.16
2023-05-19T02:38:18.022Z,54.98
2023-05-19T02:40:44.569Z,55.20
2023-05-19T02:43:11.144Z,55.06
2023-05-19T02:45:37.665Z,55.40
2023-05-19T02:48:04.704Z,55.19
2023-05-19T02:50:31.504Z,54.80
2023-05-19T02:53:03.949Z,54.37
2023-05-19T02:55:30.468Z,54.52
2023-05-19T02:57:56.964Z,54.66
2023-05-19T03:00:23.519Z,55.69
2023-05-19T03:02:50.132Z,57.44
2023-05-19T03:05:16.823Z,57.25
2023-05-19T03:07:43.359Z,57.32
2023-05-19T03:10:10.415Z,57.24
2023-05-19T03:12:36.911Z,58.28
2023-05-19T03:15:03.627Z,58.47
2023-05-19T03:17:34.032Z,58.37
2023-05-19T03:20:01.456Z,58.45
2023-05-19T03:22:28.079Z,58.87
2023-05-19T03:24:54.731Z,58.95
2023-05-19T03:27:30.224Z,58.38
2023-05-19T03:30:06.636Z,57.75
2023-05-19T03:32:38.182Z,61.30
2023-05-19T03:35:05.635Z,59.31
2023-05-19T03:37:35.004Z,58.90
2023-05-19T03:40:01.594Z,59.06
2023-05-19T03:42:28.124Z,59.71
2023-05-19T03:44:57.630Z,59.56
2023-05-19T03:47:25.248Z,59.50
2023-05-19T03:49:51.770Z,60.07
2023-05-19T03:52:27.216Z,60.36
2023-05-19T03:54:57.738Z,60.32
2023-05-19T03:57:24.402Z,60.20
2023-05-19T03:59:50.943Z,60.79
2023-05-19T04:02:22.803Z,60.79
2023-05-19T04:04:50.486Z,60.41
2023-05-19T04:07:17.287Z,60.09
2023-05-19T04:09:43.860Z,60.21
2023-05-19T04:12:10.582Z,60.68
2023-05-19T04:14:42.655Z,60.49
2023-05-19T04:17:09.329Z,60.40
2023-05-19T04:19:37.575Z,59.79
2023-05-19T04:22:04.276Z,59.23
2023-05-19T04:24:31.042Z,58.66
2023-05-19T04:27:02.368Z,58.10
2023-05-19T04:29:29.475Z,57.90
2023-05-19T04:32:03.555Z,58.15
2023-05-19T04:34:30.654Z,58.10
2023-05-19T04:36:58.534Z,57.68
2023-05-19T04:39:25.623Z,57.91
2023-05-19T04:41:54.023Z,57.32
2023-05-19T04:44:26.353Z,57.38
2023-05-19T04:46:54.406Z,57.47
2023-05-19T04:49:24.222Z,57.83
2023-05-19T04:51:56.657Z,57.58
2023-05-19T04:54:23.182Z,57.62
2023-05-19T04:56:58.501Z,58.18
2023-05-19T04:59:25.012Z,58.75
2023-05-19T05:01:55.494Z,58.52
2023-05-19T05:04:23.756Z,59.42
2023-05-19T05:06:50.584Z,59.71
2023-05-19T05:09:18.926Z,60.17
2023-05-19T05:11:46.050Z,60.35
2023-05-19T05:14:13.027Z,60.34
2023-05-19T05:16:39.941Z,60.70
2023-05-19T05:19:06.924Z,60.83
2023-05-19T05:21:36.075Z,60.90
2023-05-19T05:24:03.114Z,61.04
2023-05-19T05:26:33.818Z,61.02
2023-05-19T05:29:00.466Z,61.46
2023-05-19T05:31:27.035Z,61.03
2023-05-19T05:34:02.208Z,60.78
2023-05-19T05:36:28.761Z,60.82
2023-05-19T05:38:55.350Z,60.56
2023-05-19T05:41:22.082Z,60.61
2023-05-19T05:44:02.436Z,60.06
2023-05-19T05:46:29.402Z,60.47
2023-05-19T05:48:56.615Z,59.86
2023-05-19T05:51:23.783Z,59.58
2023-05-19T05:53:54.024Z,59.92
2023-05-19T05:56:22.063Z,59.40
2023-05-19T05:58:49.474Z,59.54
2023-05-19T06:01:17.726Z,58.94
2023-05-19T06:03:44.978Z,58.81
2023-05-19T06:06:17.480Z,58.28
2023-05-19T06:08:44.015Z,57.61
2023-05-19T06:11:13.338Z,57.41
2023-05-19T06:13:45.390Z,56.87
2023-05-19T06:16:11.947Z,55.59
2023-05-19T06:18:44.146Z,54.69
2023-05-19T06:21:13.194Z,54.35
2023-05-19T06:23:43.543Z,53.66
2023-05-19T06:26:10.112Z,53.56
2023-05-19T06:28:36.668Z,53.08
2023-05-19T06:31:03.347Z,52.84
2023-05-19T06:33:29.910Z,52.65
2023-05-19T06:35:56.468Z,52.59
2023-05-19T06:38:23.104Z,52.43
2023-05-19T06:40:49.600Z,51.82
2023-05-19T06:43:16.101Z,51.45
2023-05-19T06:45:42.559Z,51.35
2023-05-19T06:48:09.175Z,50.49
2023-05-19T06:50:38.475Z,49.87
2023-05-19T06:53:06.062Z,49.76
2023-05-19T06:55:34.425Z,49.51
2023-05-19T06:58:03.718Z,48.88
2023-05-19T07:00:30.219Z,48.48
2023-05-19T07:02:56.820Z,48.69
2023-05-19T07:05:23.370Z,48.73
2023-05-19T07:07:49.962Z,48.17
2023-05-19T07:10:19.364Z,48.14
2023-05-19T07:12:46.169Z,47.97
2023-05-19T07:15:12.841Z,47.23
2023-05-19T07:17:39.438Z,47.09
2023-05-19T07:20:07.097Z,46.57
2023-05-19T07:22:36.852Z,46.37
2023-05-19T07:25:03.434Z,45.66
2023-05-19T07:27:30.000Z,45.33
2023-05-19T07:30:07.362Z,45.33
2023-05-19T07:32:33.915Z,45.07
2023-05-19T07:35:00.570Z,44.39
2023-05-19T07:37:27.333Z,43.91
2023-05-19T07:39:53.908Z,43.78
2023-05-19T07:42:20.465Z,43.75
2023-05-19T07:44:47.009Z,43.69
2023-05-19T07:47:25.216Z,43.82
2023-05-19T07:49:52.063Z,43.27
2023-05-19T07:52:18.774Z,43.16
2023-05-19T07:54:45.986Z,43.09
2023-05-19T07:57:12.624Z,43.29
2023-05-19T07:59:39.237Z,42.21
2023-05-19T08:02:06.447Z,41.88
2023-05-19T08:04:33.314Z,42.22
2023-05-19T08:06:59.896Z,41.96
2023-05-19T08:09:26.593Z,42.01
2023-05-19T08:11:53.422Z,41.59
2023-05-19T08:14:22.671Z,41.23
2023-05-19T08:16:49.955Z,41.29
2023-05-19T08:19:16.564Z,41.38
2023-05-19T08:21:45.071Z,40.90
2023-05-19T08:24:11.659Z,41.00
2023-05-19T08:26:38.287Z,41.42
2023-05-19T08:29:05.026Z,41.03
2023-05-19T08:31:31.784Z,40.24
2023-05-19T08:33:58.367Z,39.31
2023-05-19T08:36:24.887Z,38.97
2023-05-19T08:38:56.289Z,38.11
2023-05-19T08:41:23.333Z,38.52
2023-05-19T08:43:50.161Z,38.94
2023-05-19T08:46:17.026Z,38.81
2023-05-19T08:48:47.533Z,39.01
2023-05-19T08:51:24.451Z,39.02
2023-05-19T08:53:57.666Z,38.79
2023-05-19T08:56:32.550Z,38.26
2023-05-19T08:59:00.431Z,38.21
2023-05-19T09:01:28.887Z,38.17
2023-05-19T09:03:55.958Z,37.73
2023-05-19T09:06:29.060Z,37.56
2023-05-19T09:08:56.899Z,37.43
2023-05-19T09:11:23.523Z,37.65
2023-05-19T09:13:50.442Z,36.59
2023-05-19T09:16:17.772Z,36.83
2023-05-19T09:18:58.231Z,35.00
2023-05-19T09:21:36.388Z,36.52
2023-05-19T09:24:09.519Z,36.60
2023-05-19T09:26:50.610Z,36.66
2023-05-19T09:29:18.308Z,36.09
2023-05-19T09:32:06.593Z,35.94
2023-05-19T09:34:33.233Z,36.13
2023-05-19T09:36:59.903Z,34.65
2023-05-19T09:39:26.691Z,35.29
2023-05-19T09:41:56.168Z,35.45
2023-05-19T09:44:31.235Z,35.47
2023-05-19T09:46:58.696Z,35.23
2023-05-19T09:49:30.395Z,35.32
2023-05-19T09:52:07.714Z,35.43
2023-05-19T09:54:34.797Z,35.29
2023-05-19T09:57:04.837Z,32.62
2023-05-19T09:59:33.656Z,33.83
2023-05-19T10:02:02.733Z,34.21
2023-05-19T10:04:30.883Z,32.26
2023-05-19T10:06:59.670Z,33.04
2023-05-19T10:09:29.511Z,33.87
2023-05-19T10:11:58.428Z,30.40
2023-05-19T10:14:28.653Z,31.63
2023-05-19T10:16:59.670Z,32.29
2023-05-19T10:19:29.640Z,33.11
2023-05-19T10:21:56.880Z,33.63
2023-05-19T10:24:24.253Z,33.37
2023-05-19T10:27:07.752Z,33.39
2023-05-19T10:29:40.500Z,33.35
2023-05-19T10:32:14.484Z,33.20
2023-05-19T10:35:11.622Z,32.59
2023-05-19T10:38:10.484Z,33.03
2023-05-19T10:40:43.713Z,33.28
2023-05-19T10:44:04.232Z,32.96
2023-05-19T10:46:31.173Z,32.89
2023-05-19T10:48:57.802Z,31.89
2023-05-19T10:51:34.844Z,32.39
2023-05-19T10:54:15.920Z,32.59
2023-05-19T10:56:47.396Z,32.63
2023-05-19T10:59:39.943Z,32.55
2023-05-19T11:02:08.730Z,32.63
2023-05-19T11:04:49.547Z,32.52
2023-05-19T11:07:20.389Z,31.93
2023-05-19T11:09:53.982Z,32.07
2023-05-19T11:12:24.677Z,32.64
2023-05-19T11:14:59.220Z,31.08
2023-05-19T11:17:27.333Z,31.38
2023-05-19T11:19:57.105Z,31.84
2023-05-19T11:22:28.088Z,31.31
2023-05-19T11:24:58.056Z,30.53
2023-05-19T11:27:32.844Z,31.42
2023-05-19T11:30:07.555Z,30.37
2023-05-19T11:32:39.190Z,29.98
2023-05-19T11:35:08.025Z,30.76
2023-05-19T11:37:37.966Z,31.38
2023-05-19T11:40:09.582Z,31.60
2023-05-19T11:42:37.235Z,29.76
2023-05-19T11:45:05.251Z,28.76
2023-05-19T11:47:47.062Z,27.95
2023-05-19T11:50:22.783Z,29.75
2023-05-19T11:52:54.205Z,29.70
2023-05-19T11:55:22.416Z,30.54
2023-05-19T11:58:05.801Z,28.99
2023-05-19T12:00:40.435Z,28.71
2023-05-19T12:03:08.739Z,29.25
2023-05-19T12:05:45.366Z,29.45
2023-05-19T12:08:12.890Z,29.45
2023-05-19T12:10:40.404Z,27.94
2023-05-19T12:13:11.022Z,27.72
2023-05-19T12:15:37.882Z,28.94
2023-05-19T12:18:04.616Z,29.44
2023-05-19T12:20:32.575Z,29.41
2023-05-19T12:23:00.737Z,29.46
2023-05-19T12:25:29.738Z,28.28
2023-05-19T12:28:05.519Z,28.52
2023-05-19T12:30:33.322Z,27.03
2023-05-19T12:33:02.490Z,28.14
2023-05-19T12:35:35.856Z,28.30
2023-05-19T12:38:12.196Z,28.79
2023-05-19T12:40:42.417Z,29.18
2023-05-19T12:43:19.135Z,29.14
2023-05-19T12:45:45.863Z,29.58
2023-05-19T12:48:12.744Z,28.77
2023-05-19T12:50:39.528Z,28.69
2023-05-19T12:53:10.946Z,28.72
2023-05-19T12:55:45.533Z,28.53
2023-05-19T12:58:12.607Z,28.50
2023-05-19T13:00:45.286Z,28.66
2023-05-19T13:03:20.458Z,28.55
2023-05-19T13:05:50.669Z,29.01
2023-05-19T13:08:20.575Z,28.94
2023-05-19T13:10:49.077Z,29.16
2023-05-19T13:13:16.629Z,29.56
2023-05-19T13:15:46.235Z,29.43
2023-05-19T13:18:13.981Z,29.73
2023-05-19T13:20:43.178Z,29.48
2023-05-19T13:23:14.284Z,28.41
2023-05-19T13:25:41.973Z,28.87
2023-05-19T13:28:09.527Z,28.88
2023-05-19T13:30:39.016Z,28.90
2023-05-19T13:33:06.212Z,28.96
2023-05-19T13:35:36.955Z,28.39
2023-05-19T13:38:10.079Z,26.89
2023-05-19T13:40:37.545Z,25.45
2023-05-19T13:43:05.084Z,26.92
2023-05-19T13:45:31.968Z,27.73
2023-05-19T13:47:58.698Z,27.69
2023-05-19T13:50:25.403Z,27.57
2023-05-19T13:52:51.984Z,27.75
2023-05-19T13:55:18.904Z,27.59
2023-05-19T13:57:45.562Z,27.56
2023-05-19T14:00:12.683Z,27.75
2023-05-19T14:02:39.663Z,28.00
2023-05-19T14:05:07.797Z,28.28
2023-05-19T14:07:36.603Z,28.38
2023-05-19T14:10:06.646Z,28.39
2023-05-19T14:12:44.902Z,28.46
2023-05-19T14:15:19.666Z,28.69
2023-05-19T14:17:46.348Z,28.85
2023-05-19T14:20:13.212Z,28.32
2023-05-19T14:22:39.756Z,27.50
2023-05-19T14:25:07.224Z,28.01
2023-05-19T14:27:33.780Z,28.23
2023-05-19T14:30:00.405Z,28.48
2023-05-19T14:32:30.115Z,28.49
2023-05-19T14:34:56.983Z,28.78
2023-05-19T14:37:24.164Z,28.73
2023-05-19T14:39:50.738Z,28.50
2023-05-19T14:42:17.217Z,29.02
2023-05-19T14:44:43.934Z,29.15
2023-05-19T14:47:11.240Z,28.89
2023-05-19T14:49:38.184Z,29.23
2023-05-19T14:52:04.934Z,29.17
2023-05-19T14:54:31.511Z,28.72
2023-05-19T14:56:58.155Z,29.00
2023-05-19T14:59:24.976Z,29.03
2023-05-19T15:01:51.570Z,28.88
2023-05-19T15:04:18.102Z,29.21
2023-05-19T15:06:48.110Z,29.41
2023-05-19T15:09:16.876Z,29.00
2023-05-19T15:11:43.440Z,29.05
2023-05-19T15:14:10.010Z,29.19
2023-05-19T15:16:36.630Z,29.36
2023-05-19T15:19:03.214Z,29.54
2023-05-19T15:21:29.763Z,29.28
2023-05-19T15:23:56.323Z,29.56
2023-05-19T15:26:22.939Z,29.83
2023-05-19T15:28:49.537Z,29.75
2023-05-19T15:31:16.255Z,29.48
2023-05-19T15:33:42.772Z,28.61
2023-05-19T15:36:11.122Z,28.19
2023-05-19T15:38:37.619Z,28.29
2023-05-19T15:41:08.440Z,28.64
2023-05-19T15:43:41.418Z,29.33
2023-05-19T15:46:08.035Z,29.10
2023-05-19T15:48:34.730Z,28.94
2023-05-19T15:51:01.651Z,28.34
2023-05-19T15:53:28.227Z,28.92
2023-05-19T15:55:54.769Z,29.27
2023-05-19T15:58:21.304Z,29.27
2023-05-19T16:00:47.891Z,29.39
2023-05-19T16:03:14.662Z,29.47
2023-05-19T16:05:41.259Z,29.75
2023-05-19T16:08:08.796Z,30.01
2023-05-19T16:10:40.963Z,30.12
2023-05-19T16:13:10.643Z,30.40
2023-05-19T16:15:37.222Z,30.25
2023-05-19T16:18:04.525Z,30.74
2023-05-19T16:20:31.368Z,30.80
2023-05-19T16:22:58.397Z,30.90
2023-05-19T16:25:25.011Z,31.11
2023-05-19T16:27:52.311Z,31.41
2023-05-19T16:30:18.889Z,31.17
2023-05-19T16:32:45.789Z,30.82
2023-05-19T16:35:12.400Z,30.74
2023-05-19T16:37:38.991Z,30.87
2023-05-19T16:40:06.854Z,30.57
2023-05-19T16:42:33.425Z,30.62
2023-05-19T16:44:59.922Z,30.63
2023-05-19T16:47:30.934Z,30.50
2023-05-19T16:49:57.556Z,30.57
2023-05-19T16:52:24.095Z,30.65
2023-05-19T16:54:50.668Z,31.00
2023-05-19T16:57:17.220Z,31.01
2023-05-19T16:59:43.794Z,31.35
2023-05-19T17:02:10.495Z,31.16
2023-05-19T17:04:37.106Z,31.44
2023-05-19T17:07:03.981Z,31.54
2023-05-19T17:09:31.274Z,31.42
2023-05-19T17:11:57.880Z,31.00
2023-05-19T17:14:24.449Z,30.31
2023-05-19T17:16:52.416Z,30.94
2023-05-19T17:19:19.170Z,31.13
2023-05-19T17:21:46.265Z,31.63
2023-05-19T17:24:12.865Z,31.90
2023-05-19T17:26:39.538Z,31.48
2023-05-19T17:29:06.076Z,31.84
2023-05-19T17:31:32.695Z,32.10
2023-05-19T17:33:59.209Z,32.29
2023-05-19T17:36:26.319Z,32.12
2023-05-19T17:38:54.035Z,32.56
2023-05-19T17:41:21.023Z,32.29
2023-05-19T17:44:02.675Z,32.29
2023-05-19T17:46:34.535Z,32.08
2023-05-19T17:49:12.654Z,31.78
2023-05-19T17:51:39.752Z,31.63
2023-05-19T17:54:09.264Z,31.34
2023-05-19T17:56:41.828Z,31.51
2023-05-19T17:59:08.930Z,31.81
2023-05-19T18:01:36.054Z,32.05
2023-05-19T18:04:03.666Z,31.93
2023-05-19T18:06:31.643Z,32.03
2023-05-19T18:09:01.145Z,32.02
2023-05-19T18:11:28.060Z,32.01
2023-05-19T18:13:54.811Z,32.31
2023-05-19T18:16:21.505Z,32.11
2023-05-19T18:18:50.457Z,32.33
2023-05-19T18:21:18.277Z,32.57
2023-05-19T18:23:46.250Z,32.83
2023-05-19T18:26:24.418Z,33.00
2023-05-19T18:29:02.316Z,32.90
2023-05-19T18:31:28.929Z,33.05
2023-05-19T18:34:03.464Z,33.47
2023-05-19T18:36:30.600Z,33.68
2023-05-19T18:39:00.289Z,33.81
2023-05-19T18:41:26.854Z,33.98
2023-05-19T18:43:54.072Z,34.01
2023-05-19T18:46:26.014Z,34.06
2023-05-19T18:48:52.847Z,34.10
2023-05-19T18:51:21.232Z,34.34
2023-05-19T18:53:49.937Z,34.70
2023-05-19T18:56:27.188Z,35.27
2023-05-19T18:58:57.519Z,35.20
2023-05-19T19:01:24.149Z,35.27
2023-05-19T19:03:51.209Z,35.52
2023-05-19T19:06:17.767Z,35.71
2023-05-19T19:08:44.635Z,35.71
2023-05-19T19:11:11.232Z,35.85
2023-05-19T19:13:38.235Z,36.22
2023-05-19T19:16:06.112Z,36.38
2023-05-19T19:18:34.449Z,36.53
2023-05-19T19:21:02.489Z,36.90
2023-05-19T19:23:32.487Z,37.09
2023-05-19T19:25:59.080Z,37.46
2023-05-19T19:28:25.832Z,37.76
2023-05-19T19:30:52.590Z,37.87
2023-05-19T19:33:19.311Z,38.07
2023-05-19T19:35:52.166Z,37.92
2023-05-19T19:38:18.746Z,38.12
2023-05-19T19:40:45.530Z,38.58
2023-05-19T19:43:12.098Z,38.20
2023-05-19T19:45:48.796Z,38.96
2023-05-19T19:48:17.975Z,39.13
2023-05-19T19:50:44.575Z,39.31
2023-05-19T19:53:11.369Z,39.46
2023-05-19T19:55:37.980Z,39.58
2023-05-19T19:58:04.533Z,39.80
2023-05-19T20:00:31.332Z,40.11
2023-05-19T20:03:05.053Z,40.56
2023-05-19T20:05:32.524Z,40.99
2023-05-19T20:07:59.162Z,41.10
2023-05-19T20:10:28.308Z,41.27
2023-05-19T20:13:01.728Z,41.53
2023-05-19T20:15:28.271Z,41.50
2023-05-19T20:17:54.886Z,41.70
2023-05-19T20:20:21.623Z,41.97
2023-05-19T20:22:48.103Z,42.26
2023-05-19T20:25:14.736Z,42.34
2023-05-19T20:27:41.280Z,42.21
2023-05-19T20:30:11.107Z,42.56
2023-05-19T20:32:54.015Z,42.77
2023-05-19T20:35:26.850Z,43.08
2023-05-19T20:37:53.478Z,43.22
2023-05-19T20:40:20.087Z,43.11
2023-05-19T20:42:46.597Z,43.77
2023-05-19T20:45:13.156Z,43.68
2023-05-19T20:47:45.352Z,43.80
2023-05-19T20:50:12.049Z,43.56
2023-05-19T20:52:38.601Z,44.31
2023-05-19T20:55:05.505Z,43.85
2023-05-19T20:57:32.054Z,43.70
2023-05-19T20:59:59.469Z,43.96
2023-05-19T21:02:26.002Z,44.39
2023-05-19T21:04:52.578Z,44.25
2023-05-19T21:07:19.484Z,44.40
2023-05-19T21:09:51.330Z,44.58
2023-05-19T21:12:19.038Z,44.54
2023-05-19T21:14:47.076Z,44.56
2023-05-19T21:17:13.637Z,44.57
2023-05-19T21:19:40.259Z,44.88
2023-05-19T21:22:13.313Z,45.18
2023-05-19T21:24:39.877Z,45.65
2023-05-19T21:27:06.447Z,45.32
2023-05-19T21:29:33.036Z,45.79
2023-05-19T21:32:02.371Z,45.94
2023-05-19T21:34:28.951Z,46.11
2023-05-19T21:37:00.002Z,45.79
2023-05-19T21:39:26.531Z,46.10
2023-05-19T21:41:53.138Z,46.01
2023-05-19T21:44:19.912Z,46.45
2023-05-19T21:46:46.658Z,46.99
2023-05-19T21:49:13.235Z,47.43
2023-05-19T21:51:39.777Z,47.46
2023-05-19T21:54:11.613Z,47.96
2023-05-19T21:56:46.746Z,47.35
2023-05-19T21:59:13.524Z,47.72
2023-05-19T22:01:40.312Z,47.91
2023-05-19T22:04:07.097Z,48.29
2023-05-19T22:06:34.137Z,48.39
2023-05-19T22:09:02.394Z,48.58
2023-05-19T22:11:28.919Z,48.69
2023-05-19T22:13:55.534Z,48.88
2023-05-19T22:16:22.202Z,49.11
2023-05-19T22:18:51.737Z,49.21
2023-05-19T22:21:18.367Z,48.41
2023-05-19T22:23:47.837Z,48.76
2023-05-19T22:26:14.386Z,49.29
2023-05-19T22:28:40.984Z,48.56
2023-05-19T22:31:15.786Z,48.50
2023-05-19T22:33:42.366Z,48.77
2023-05-19T22:36:10.883Z,48.28
2023-05-19T22:38:37.467Z,48.42
2023-05-19T22:41:04.070Z,48.86
2023-05-19T22:43:30.726Z,48.83
2023-05-19T22:45:57.311Z,48.84
2023-05-19T22:48:24.167Z,48.65
2023-05-19T22:50:50.884Z,49.04
2023-05-19T22:53:17.431Z,49.58
2023-05-19T22:55:43.971Z,49.44
2023-05-19T22:58:10.537Z,49.35
2023-05-19T23:00:37.076Z,49.46
2023-05-19T23:03:03.854Z,49.98
2023-05-19T23:05:30.439Z,50.06
2023-05-19T23:07:56.970Z,49.53
2023-05-19T23:10:23.548Z,49.91
2023-05-19T23:12:51.521Z,50.15
2023-05-19T23:15:18.259Z,50.34
2023-05-19T23:17:44.832Z,49.90
2023-05-19T23:20:12.711Z,49.74
2023-05-19T23:22:39.326Z,49.31
2023-05-19T23:25:07.734Z,49.29
2023-05-19T23:27:35.656Z,49.33
2023-05-19T23:30:03.502Z,49.46
2023-05-19T23:32:40.799Z,48.89
2023-05-19T23:35:16.559Z,49.29
2023-05-19T23:37:43.165Z,49.15
2023-05-19T23:40:10.350Z,49.43
2023-05-19T23:42:37.164Z,49.23
2023-05-19T23:45:05.405Z,49.67
2023-05-19T23:47:36.702Z,49.44
2023-05-19T23:50:03.593Z,49.76
2023-05-19T23:52:31.645Z,50.18
2023-05-19T23:54:58.252Z,50.47
2023-05-19T23:57:24.817Z,50.38
2023-05-19T23:59:51.364Z,50.51
